Time;durP1;ratioP1;P1;durP2;ratioP2;P2;SDS_P1;SDS_P2;PMS_P1;PMS_P2;Temp;Humidity;BMP_temperature;BMP_pressure;BME280_temperature;BME280_humidity;BME280_pressure;Samples;Min_cycle;Max_cycle;Signal;HPM_P1;HPM_P2
2022/09/05 00:02:41;;;;;;;3.00;2.70;;;25.80;61.00;;;;;;4948279;29;20964;-75
2022/09/05 00:05:19;;;;;;;3.47;3.10;;;25.80;61.10;;;;;;4927912;29;20460;-75
2022/09/05 00:08:09;;;;;;;3.10;2.80;;;25.80;61.10;;;;;;4954070;28;20427;-75
2022/09/05 00:11:18;;;;;;;3.30;2.70;;;25.80;61.10;;;;;;4934057;29;20479;-75
2022/09/05 00:13:56;;;;;;;3.30;3.10;;;25.80;61.20;;;;;;4919425;29;20451;-75
2022/09/05 00:16:50;;;;;;;2.83;2.63;;;25.80;61.20;;;;;;4934149;29;20437;-75
2022/09/05 00:19:42;;;;;;;3.60;3.30;;;25.70;61.20;;;;;;4924694;29;20433;-75
2022/09/05 00:22:31;;;;;;;3.73;2.60;;;25.70;61.30;;;;;;4941418;28;20464;-75
2022/09/05 00:25:08;;;;;;;2.47;2.27;;;25.70;61.30;;;;;;4955200;28;20493;-75
2022/09/05 00:27:56;;;;;;;3.60;2.83;;;25.70;61.40;;;;;;4953176;29;21035;-75
2022/09/05 00:30:30;;;;;;;3.23;2.93;;;25.70;61.40;;;;;;4947121;28;20469;-75
2022/09/05 00:33:20;;;;;;;3.00;2.80;;;25.70;61.50;;;;;;4973445;28;20462;-75
2022/09/05 00:35:48;;;;;;;3.73;3.00;;;25.60;61.50;;;;;;4972717;28;20487;-75
2022/09/05 00:38:18;;;;;;;2.80;2.60;;;25.60;61.50;;;;;;4960778;28;20447;-75
2022/09/05 00:40:52;;;;;;;3.30;3.00;;;25.60;61.50;;;;;;4942951;28;20802;-75
2022/09/05 00:43:24;;;;;;;2.43;2.23;;;25.60;61.50;;;;;;4968121;28;20512;-75
2022/09/05 00:46:07;;;;;;;2.90;2.70;;;25.60;61.50;;;;;;4959624;28;21058;-75
2022/09/05 00:48:55;;;;;;;2.70;2.50;;;25.60;62.30;;;;;;4983925;28;20450;-75
2022/09/05 00:51:43;;;;;;;3.07;2.80;;;25.60;61.50;;;;;;4954094;28;20540;-75
2022/09/05 00:54:17;;;;;;;3.23;2.93;;;25.60;61.50;;;;;;4969879;28;20439;-75
2022/09/05 00:57:12;;;;;;;2.50;2.30;;;25.60;61.50;;;;;;4965431;28;20434;-75
2022/09/05 01:00:17;;;;;;;2.93;2.60;;;25.60;61.60;;;;;;4971764;28;20975;-75
2022/09/05 01:03:15;;;;;;;5.60;2.77;;;25.50;61.50;;;;;;4932830;29;20954;-75
2022/09/05 01:06:05;;;;;;;3.37;3.07;;;25.50;61.50;;;;;;4952513;28;20434;-75
2022/09/05 01:08:58;;;;;;;3.20;2.87;;;25.50;61.60;;;;;;4946967;28;20460;-76
2022/09/05 01:11:45;;;;;;;4.10;2.90;;;25.50;61.60;;;;;;4954263;28;20557;-75
2022/09/05 01:14:24;;;;;;;2.90;2.67;;;25.50;61.70;;;;;;4945600;28;20456;-76
2022/09/05 01:16:53;;;;;;;3.53;2.87;;;25.40;61.60;;;;;;4937051;28;20455;-75
2022/09/05 01:19:28;;;;;;;3.70;3.00;;;25.40;61.70;;;;;;4974147;28;20479;-75
2022/09/05 01:22:32;;;;;;;2.97;2.70;;;25.40;61.80;;;;;;4940836;29;20419;-75
2022/09/05 01:25:16;;;;;;;2.97;2.77;;;25.40;61.80;;;;;;4939209;29;21057;-75
2022/09/05 01:28:12;;;;;;;3.03;2.83;;;25.40;62.40;;;;;;4938966;29;20453;-75
2022/09/05 01:30:41;;;;;;;2.80;2.53;;;25.40;62.70;;;;;;4940399;28;20532;-75
2022/09/05 01:33:31;;;;;;;3.17;2.80;;;25.40;62.00;;;;;;4958328;28;20438;-75
2022/09/05 01:36:29;;;;;;;3.00;2.70;;;25.30;61.90;;;;;;4956811;28;20998;-75
2022/09/05 01:39:35;;;;;;;3.60;2.67;;;25.30;62.00;;;;;;4975455;28;20425;-75
2022/09/05 01:42:16;;;;;;;3.40;3.10;;;25.30;62.10;;;;;;4961584;28;20438;-75
2022/09/05 01:44:53;;;;;;;3.70;2.70;;;25.30;62.10;;;;;;4975162;28;20460;-75
2022/09/05 01:47:44;;;;;;;3.50;2.70;;;25.30;62.20;;;;;;4949848;28;20469;-75
2022/09/05 01:50:31;;;;;;;3.17;2.87;;;25.30;62.20;;;;;;4951312;28;20475;-75
2022/09/05 01:53:24;;;;;;;3.90;3.50;;;25.20;62.10;;;;;;4958459;28;20445;-75
2022/09/05 01:56:08;;;;;;;3.17;2.97;;;25.20;62.20;;;;;;4961807;28;20457;-75
2022/09/05 01:58:59;;;;;;;3.10;2.80;;;25.20;62.20;;;;;;4974365;28;20426;-75
2022/09/05 02:01:48;;;;;;;3.00;2.70;;;25.20;62.20;;;;;;4960327;28;20431;-75
2022/09/05 02:04:29;;;;;;;3.63;3.10;;;25.20;62.20;;;;;;4973682;28;20538;-75
2022/09/05 02:07:08;;;;;;;3.30;3.00;;;25.20;62.20;;;;;;4967577;28;20567;-75
2022/09/05 02:09:56;;;;;;;3.20;2.90;;;25.20;62.20;;;;;;4974279;28;21036;-75
2022/09/05 02:13:14;;;;;;;2.83;2.63;;;25.20;62.30;;;;;;4974735;28;20461;-75
2022/09/05 02:15:44;;;;;;;3.10;2.90;;;25.10;62.20;;;;;;4953959;28;20881;-75
2022/09/05 02:18:29;;;;;;;3.47;3.10;;;25.10;62.20;;;;;;4945704;28;20477;-75
2022/09/05 02:20:59;;;;;;;3.30;3.00;;;25.10;62.30;;;;;;4971593;28;20422;-75
2022/09/05 02:23:42;;;;;;;3.30;3.00;;;25.10;62.30;;;;;;4957932;28;20460;-75
2022/09/05 02:26:26;;;;;;;3.10;2.80;;;25.10;62.40;;;;;;4991132;28;20431;-74
2022/09/05 02:29:04;;;;;;;2.70;2.50;;;25.10;62.40;;;;;;4973557;28;20776;-75
2022/09/05 02:31:42;;;;;;;2.70;2.47;;;25.10;62.40;;;;;;4968864;28;20457;-75
2022/09/05 02:34:34;;;;;;;4.20;3.20;;;25.00;62.30;;;;;;4959451;28;20449;-75
2022/09/05 02:37:07;;;;;;;3.03;2.83;;;25.00;62.40;;;;;;4967432;28;20467;-75
2022/09/05 02:39:49;;;;;;;3.80;3.17;;;25.00;62.40;;;;;;4984222;28;20558;-75
2022/09/05 02:42:44;;;;;;;3.43;3.13;;;25.00;62.40;;;;;;4956558;28;20916;-75
2022/09/05 02:45:33;;;;;;;3.50;3.20;;;25.00;62.40;;;;;;4931705;29;20479;-75
2022/09/05 02:48:32;;;;;;;3.60;3.30;;;25.00;62.40;;;;;;4954957;28;20454;-75
2022/09/05 02:51:19;;;;;;;3.63;3.33;;;24.90;62.30;;;;;;4964044;28;20495;-75
2022/09/05 02:53:55;;;;;;;5.70;3.03;;;24.90;62.30;;;;;;4966784;28;20486;-74
2022/09/05 02:56:36;;;;;;;4.17;3.00;;;24.90;62.40;;;;;;4989621;28;20444;-77
2022/09/05 02:59:09;;;;;;;4.90;3.17;;;24.90;62.50;;;;;;4963068;28;20430;-75
2022/09/05 03:01:58;;;;;;;3.03;2.83;;;24.90;62.50;;;;;;4944216;28;20450;-75
2022/09/05 03:04:55;;;;;;;4.67;2.90;;;24.90;62.50;;;;;;4955640;28;20548;-75
2022/09/05 03:07:57;;;;;;;3.50;3.20;;;24.90;62.50;;;;;;4984405;28;20441;-75
2022/09/05 03:10:48;;;;;;;2.90;2.60;;;24.90;62.60;;;;;;4960968;28;20457;-75
2022/09/05 03:13:46;;;;;;;3.30;3.00;;;24.80;62.60;;;;;;4939947;28;20487;-75
2022/09/05 03:16:34;;;;;;;3.23;2.93;;;24.80;63.50;;;;;;4956855;28;20462;-75
2022/09/05 03:19:19;;;;;;;2.90;2.53;;;24.80;62.70;;;;;;4970033;28;20798;-75
2022/09/05 03:22:12;;;;;;;3.30;3.10;;;24.80;62.70;;;;;;4946023;28;20562;-75
2022/09/05 03:25:06;;;;;;;3.40;3.10;;;24.80;62.70;;;;;;4968541;28;20492;-77
2022/09/05 03:28:02;;;;;;;2.90;2.70;;;24.70;62.70;;;;;;4961498;28;20514;-75
2022/09/05 03:31:04;;;;;;;3.47;2.80;;;24.70;62.70;;;;;;4951639;28;20549;-75
2022/09/05 03:34:15;;;;;;;2.90;2.70;;;24.70;62.70;;;;;;4969464;28;20797;-75
2022/09/05 03:36:59;;;;;;;3.20;2.90;;;24.70;62.80;;;;;;4954602;29;20941;-75
2022/09/05 03:39:34;;;;;;;2.90;2.70;;;24.70;62.80;;;;;;4958430;28;21006;-74
2022/09/05 03:42:11;;;;;;;3.23;3.00;;;24.70;62.90;;;;;;4948773;29;20469;-74
2022/09/05 03:45:00;;;;;;;3.20;2.90;;;24.70;62.80;;;;;;4969785;28;20453;-75
2022/09/05 03:47:35;;;;;;;3.53;3.07;;;24.70;62.80;;;;;;4919571;29;20424;-74
2022/09/05 03:50:07;;;;;;;3.00;2.80;;;24.70;62.80;;;;;;4970837;28;20978;-74
2022/09/05 03:52:42;;;;;;;7.73;3.30;;;24.60;62.70;;;;;;4955109;28;20448;-74
2022/09/05 03:55:22;;;;;;;2.93;2.73;;;24.60;62.70;;;;;;4954115;28;20462;-74
2022/09/05 03:58:26;;;;;;;3.40;3.20;;;24.60;62.80;;;;;;4938517;29;20427;-75
2022/09/05 04:01:10;;;;;;;2.97;2.70;;;24.60;62.80;;;;;;4964016;28;20437;-73
2022/09/05 04:03:54;;;;;;;4.00;3.07;;;24.50;62.70;;;;;;4941522;28;20474;-74
2022/09/05 04:06:41;;;;;;;2.93;2.73;;;24.60;62.80;;;;;;4970273;28;20435;-74
2022/09/05 04:09:26;;;;;;;5.20;2.80;;;24.50;62.70;;;;;;4934751;29;20977;-74
2022/09/05 04:11:58;;;;;;;2.73;2.53;;;24.50;62.70;;;;;;4951110;29;20434;-74
2022/09/05 04:14:55;;;;;;;3.17;2.93;;;24.50;62.80;;;;;;4954737;28;20471;-74
2022/09/05 04:17:46;;;;;;;2.73;2.53;;;24.50;62.90;;;;;;4938137;29;20529;-74
2022/09/05 04:20:30;;;;;;;3.30;3.00;;;24.50;62.90;;;;;;4952945;29;20426;-75
2022/09/05 04:23:13;;;;;;;3.17;2.87;;;24.50;62.90;;;;;;4953339;28;20435;-75
2022/09/05 04:26:10;;;;;;;3.93;3.10;;;24.40;62.70;;;;;;4953498;29;20425;-76
2022/09/05 04:28:58;;;;;;;3.00;2.80;;;24.50;63.00;;;;;;4969566;28;20471;-77
2022/09/05 04:32:12;;;;;;;3.27;2.97;;;24.40;62.90;;;;;;4966558;28;20450;-77
2022/09/05 04:35:00;;;;;;;3.33;3.10;;;24.40;62.90;;;;;;4964684;28;20450;-77
2022/09/05 04:37:55;;;;;;;2.83;2.63;;;24.40;63.00;;;;;;4949781;28;20434;-77
2022/09/05 04:40:30;;;;;;;2.97;2.77;;;24.40;63.10;;;;;;4958640;28;20434;-77
2022/09/05 04:43:09;;;;;;;3.37;3.07;;;24.40;63.10;;;;;;4964948;28;20537;-77
2022/09/05 04:45:44;;;;;;;3.23;2.50;;;24.40;63.20;;;;;;4972328;28;20414;-77
2022/09/05 04:48:18;;;;;;;3.60;3.10;;;24.30;63.00;;;;;;4961415;28;20445;-77
2022/09/05 04:51:29;;;;;;;4.20;3.33;;;24.40;63.20;;;;;;4937849;29;20472;-77
2022/09/05 04:54:04;;;;;;;3.03;2.70;;;24.30;63.10;;;;;;4970460;28;20821;-77
2022/09/05 04:56:38;;;;;;;3.30;3.10;;;24.30;63.10;;;;;;4943590;28;20445;-77
2022/09/05 04:59:17;;;;;;;4.67;3.00;;;24.30;63.20;;;;;;4946249;28;20527;-77
2022/09/05 05:02:24;;;;;;;3.17;2.73;;;24.30;63.20;;;;;;4975971;28;20424;-77
2022/09/05 05:05:02;;;;;;;3.53;3.23;;;24.30;63.30;;;;;;4956294;28;20462;-76
2022/09/05 05:07:58;;;;;;;3.50;3.00;;;24.30;63.30;;;;;;4963557;28;20834;-77
2022/09/05 05:10:35;;;;;;;3.50;3.20;;;24.20;63.20;;;;;;4963747;28;20469;-77
2022/09/05 05:13:13;;;;;;;2.97;2.77;;;24.20;63.20;;;;;;4946081;28;20429;-76
2022/09/05 05:16:10;;;;;;;4.17;3.10;;;24.20;63.30;;;;;;4940844;29;20433;-74
2022/09/05 05:19:14;;;;;;;4.40;3.00;;;24.20;63.30;;;;;;4952339;28;20522;-73
2022/09/05 05:21:47;;;;;;;3.40;3.10;;;24.20;63.30;;;;;;4960604;28;20954;-75
2022/09/05 05:24:21;;;;;;;3.73;3.33;;;24.20;63.40;;;;;;4971798;28;21046;-73
2022/09/05 05:26:50;;;;;;;3.20;2.90;;;24.20;63.40;;;;;;4972452;28;20413;-73
2022/09/05 05:29:25;;;;;;;4.37;3.60;;;24.20;63.40;;;;;;4968177;28;20480;-73
2022/09/05 05:31:54;;;;;;;3.60;3.30;;;24.10;63.30;;;;;;4974774;28;20447;-73
2022/09/05 05:34:33;;;;;;;3.70;3.33;;;24.10;63.30;;;;;;4974542;28;20454;-72
2022/09/05 05:37:20;;;;;;;3.33;2.90;;;24.10;63.30;;;;;;4974082;28;20461;-72
2022/09/05 05:39:59;;;;;;;4.13;3.30;;;24.10;63.30;;;;;;4958904;28;20425;-73
2022/09/05 05:42:25;;;;;;;3.43;3.23;;;24.10;63.50;;;;;;4973761;28;20426;-73
2022/09/05 05:45:01;;;;;;;3.37;3.13;;;24.10;63.50;;;;;;4972994;28;21161;-73
2022/09/05 05:47:36;;;;;;;4.73;3.20;;;24.10;63.40;;;;;;4958416;28;20794;-72
2022/09/05 05:50:26;;;;;;;4.27;3.23;;;24.10;63.40;;;;;;4972731;28;21007;-73
2022/09/05 05:53:29;;;;;;;4.10;3.70;;;24.10;63.50;;;;;;4956722;28;20994;-73
2022/09/05 05:56:04;;;;;;;3.40;3.13;;;24.00;63.40;;;;;;4958453;28;20808;-73
2022/09/05 05:58:45;;;;;;;3.73;3.37;;;24.10;63.50;;;;;;4974752;28;20418;-73
2022/09/05 06:01:33;;;;;;;3.53;3.23;;;24.00;63.60;;;;;;4958430;28;20430;-72
2022/09/05 06:04:08;;;;;;;3.53;3.23;;;24.00;63.60;;;;;;4974430;28;20458;-73
2022/09/05 06:06:52;;;;;;;6.07;3.10;;;24.00;63.70;;;;;;4973833;28;20429;-73
2022/09/05 06:09:57;;;;;;;3.20;3.00;;;24.00;63.70;;;;;;4955955;28;20458;-73
2022/09/05 06:12:38;;;;;;;3.17;2.97;;;24.00;63.80;;;;;;4955172;28;20988;-72
2022/09/05 06:15:33;;;;;;;3.50;3.20;;;24.00;63.90;;;;;;4956589;28;20447;-73
2022/09/05 06:18:50;;;;;;;3.03;2.83;;;24.00;64.00;;;;;;4955044;29;21012;-72
2022/09/05 06:21:40;;;;;;;3.23;2.93;;;24.00;64.10;;;;;;4954787;29;20470;-73
2022/09/05 06:24:15;;;;;;;4.43;2.93;;;24.00;64.10;;;;;;4939080;29;20470;-73
2022/09/05 06:26:59;;;;;;;3.43;3.00;;;23.90;64.20;;;;;;4960764;28;20524;-72
2022/09/05 06:30:02;;;;;;;3.17;2.93;;;23.90;64.20;;;;;;4975070;28;20760;-73
2022/09/05 06:32:38;;;;;;;2.97;2.77;;;23.90;64.20;;;;;;4989747;28;20440;-73
2022/09/05 06:35:31;;;;;;;4.20;3.10;;;23.90;64.20;;;;;;4956313;28;20966;-73
2022/09/05 06:38:15;;;;;;;3.87;3.40;;;23.90;64.30;;;;;;4964638;28;20452;-73
2022/09/05 06:41:01;;;;;;;6.53;2.73;;;23.90;64.90;;;;;;4968522;28;20439;-73
2022/09/05 06:44:12;;;;;;;4.03;3.50;;;23.90;65.80;;;;;;4964381;28;20467;-73
2022/09/05 06:46:44;;;;;;;5.50;2.47;;;23.80;65.50;;;;;;4905827;29;20449;-73
2022/09/05 06:49:21;;;;;;;3.57;3.07;;;23.80;65.30;;;;;;4882894;29;20434;-73
2022/09/05 06:51:55;;;;;;;3.50;3.20;;;23.80;65.10;;;;;;4898806;29;20565;-73
2022/09/05 06:54:44;;;;;;;4.10;3.03;;;23.80;65.90;;;;;;4895903;29;20453;-73
2022/09/05 06:57:44;;;;;;;3.40;2.70;;;23.80;64.90;;;;;;4895542;29;20828;-73
2022/09/05 07:00:21;;;;;;;3.40;3.03;;;23.80;64.80;;;;;;4890239;29;20766;-73
2022/09/05 07:02:59;;;;;;;3.43;3.03;;;23.90;64.90;;;;;;4895151;29;20594;-73
2022/09/05 07:05:49;;;;;;;3.10;2.90;;;23.90;64.90;;;;;;4880042;29;20512;-73
2022/09/05 07:08:52;;;;;;;3.83;3.00;;;23.80;64.70;;;;;;4899065;29;20432;-73
2022/09/05 07:12:04;;;;;;;4.83;3.00;;;23.90;64.70;;;;;;4891450;29;20473;-73
2022/09/05 07:15:08;;;;;;;2.90;2.70;;;23.90;64.80;;;;;;4894765;29;20471;-73
2022/09/05 07:18:07;;;;;;;5.50;3.33;;;23.90;64.70;;;;;;4896770;28;20844;-73
2022/09/05 07:20:47;;;;;;;3.37;2.63;;;23.90;64.50;;;;;;4972026;28;20418;-73
2022/09/05 07:23:31;;;;;;;3.73;3.40;;;23.90;64.50;;;;;;4959141;28;20442;-73
2022/09/05 07:25:57;;;;;;;3.43;3.07;;;23.90;64.30;;;;;;4981362;28;20426;-73
2022/09/05 07:28:30;;;;;;;3.27;2.97;;;23.90;64.40;;;;;;4978947;28;20609;-73
2022/09/05 07:31:05;;;;;;;3.30;3.10;;;23.90;64.40;;;;;;4938744;28;20525;-73
2022/09/05 07:33:33;;;;;;;3.60;3.30;;;23.90;64.40;;;;;;4964228;28;20458;-73
2022/09/05 07:36:09;;;;;;;3.93;2.90;;;23.90;64.40;;;;;;4959508;28;20805;-73
2022/09/05 07:38:38;;;;;;;3.23;2.93;;;23.90;64.30;;;;;;4960986;28;20820;-72
2022/09/05 07:41:33;;;;;;;4.20;3.80;;;23.90;65.00;;;;;;4940784;28;20430;-73
2022/09/05 07:44:14;;;;;;;3.10;2.80;;;23.90;64.10;;;;;;4969307;28;20509;-73
2022/09/05 07:46:55;;;;;;;3.30;3.00;;;23.90;64.20;;;;;;4961894;28;20798;-73
2022/09/05 07:49:26;;;;;;;3.30;3.00;;;23.90;64.20;;;;;;4953682;28;20449;-73
2022/09/05 07:51:58;;;;;;;4.20;3.27;;;23.90;64.10;;;;;;4957136;28;20435;-73
2022/09/05 07:54:26;;;;;;;3.50;3.20;;;23.90;64.20;;;;;;4937558;28;20880;-73
2022/09/05 07:57:02;;;;;;;3.27;3.07;;;23.90;64.20;;;;;;4963433;28;20426;-73
2022/09/05 07:59:36;;;;;;;3.27;2.97;;;23.90;64.20;;;;;;4976277;28;20422;-73
2022/09/05 08:02:11;;;;;;;3.37;3.10;;;23.90;64.10;;;;;;4963850;28;20796;-73
2022/09/05 08:04:39;;;;;;;3.93;3.47;;;23.90;64.20;;;;;;4957922;28;20830;-73
2022/09/05 08:07:12;;;;;;;3.27;3.07;;;24.00;64.20;;;;;;4952948;28;20439;-72
2022/09/05 08:09:58;;;;;;;3.93;3.27;;;23.90;64.20;;;;;;4959465;28;20795;-73
2022/09/05 08:12:40;;;;;;;3.50;3.10;;;24.00;64.10;;;;;;4960990;28;20504;-73
2022/09/05 08:15:23;;;;;;;4.27;3.87;;;24.00;64.10;;;;;;4959430;28;20454;-73
2022/09/05 08:18:07;;;;;;;3.50;3.20;;;23.90;63.90;;;;;;4945422;29;20936;-73
2022/09/05 08:20:38;;;;;;;3.90;3.50;;;24.00;63.90;;;;;;4973546;28;20525;-73
2022/09/05 08:23:29;;;;;;;3.40;3.10;;;23.90;63.80;;;;;;4961122;28;20415;-74
2022/09/05 08:26:20;;;;;;;3.20;3.00;;;24.00;64.00;;;;;;4953677;28;20434;-73
2022/09/05 08:28:54;;;;;;;3.70;3.40;;;24.00;64.00;;;;;;4963772;28;20472;-73
2022/09/05 08:31:27;;;;;;;3.10;2.90;;;24.00;63.80;;;;;;4958038;28;20600;-72
2022/09/05 08:34:00;;;;;;;3.50;3.20;;;24.00;63.70;;;;;;4983378;28;20500;-73
2022/09/05 08:36:29;;;;;;;3.40;3.10;;;24.00;63.70;;;;;;4958077;28;20422;-73
2022/09/05 08:38:59;;;;;;;2.90;2.70;;;24.00;63.60;;;;;;4948109;28;20945;-73
2022/09/05 08:41:48;;;;;;;3.23;3.03;;;24.10;63.80;;;;;;4941296;28;20466;-73
2022/09/05 08:44:19;;;;;;;3.20;2.90;;;24.10;63.60;;;;;;4945374;28;20467;-72
2022/09/05 08:46:58;;;;;;;3.50;3.20;;;24.10;63.50;;;;;;4956493;28;20446;-71
2022/09/05 08:49:27;;;;;;;3.20;3.00;;;24.10;63.60;;;;;;4957944;28;20452;-73
2022/09/05 08:52:17;;;;;;;3.10;2.90;;;24.10;63.50;;;;;;4937576;28;20449;-72
2022/09/05 08:54:59;;;;;;;4.63;2.90;;;24.20;63.50;;;;;;4957492;28;21010;-73
2022/09/05 08:57:43;;;;;;;5.67;3.40;;;24.20;63.60;;;;;;4954730;28;20435;-73
2022/09/05 09:00:18;;;;;;;3.63;3.10;;;24.20;63.50;;;;;;4953820;28;20429;-73
2022/09/05 09:03:02;;;;;;;3.40;3.10;;;24.20;63.40;;;;;;4955638;28;20513;-72
2022/09/05 09:05:53;;;;;;;3.20;3.00;;;24.30;63.50;;;;;;4965362;28;20441;-73
2022/09/05 09:09:07;;;;;;;2.83;2.63;;;24.30;63.50;;;;;;4962172;28;20457;-73
2022/09/05 09:11:50;;;;;;;9.40;3.07;;;24.40;63.40;;;;;;4982187;28;20557;-72
2022/09/05 09:14:29;;;;;;;4.93;3.20;;;24.40;63.40;;;;;;4943447;28;20807;-73
2022/09/05 09:17:20;;;;;;;3.77;3.30;;;24.40;63.30;;;;;;4956415;28;20438;-72
2022/09/05 09:20:25;;;;;;;3.60;3.30;;;24.40;63.30;;;;;;4958880;28;21085;-72
2022/09/05 09:23:01;;;;;;;4.20;3.03;;;24.40;63.10;;;;;;4964178;28;20439;-73
2022/09/05 09:25:41;;;;;;;3.33;3.03;;;24.50;63.10;;;;;;4960121;28;21005;-73
2022/09/05 09:28:32;;;;;;;3.07;2.83;;;24.50;63.10;;;;;;4972216;28;20453;-73
2022/09/05 09:31:10;;;;;;;3.43;3.00;;;24.50;63.00;;;;;;4961871;28;20476;-72
2022/09/05 09:34:12;;;;;;;3.40;3.10;;;24.60;63.00;;;;;;4951834;28;20974;-73
2022/09/05 09:36:57;;;;;;;3.03;2.80;;;24.60;62.90;;;;;;4948587;28;20965;-72
2022/09/05 09:40:12;;;;;;;2.80;2.60;;;24.60;62.70;;;;;;4983452;28;20428;-73
2022/09/05 09:42:52;;;;;;;3.43;3.10;;;24.70;62.80;;;;;;4955117;28;20415;-72
2022/09/05 09:45:26;;;;;;;4.03;2.90;;;24.70;62.50;;;;;;4959467;28;20437;-73
2022/09/05 09:48:11;;;;;;;3.97;3.20;;;24.70;62.30;;;;;;4990754;28;20437;-73
2022/09/05 09:50:36;;;;;;;2.87;2.67;;;24.80;62.30;;;;;;4970672;28;20484;-74
2022/09/05 09:53:23;;;;;;;3.27;2.80;;;24.80;62.10;;;;;;4953961;28;21004;-74
2022/09/05 09:56:08;;;;;;;3.43;3.20;;;24.90;62.20;;;;;;4958942;28;20809;-72
2022/09/05 09:58:50;;;;;;;4.07;3.03;;;24.90;62.10;;;;;;4978426;28;20450;-72
2022/09/05 10:01:25;;;;;;;2.80;2.60;;;24.90;62.00;;;;;;4951471;28;21029;-74
2022/09/05 10:04:16;;;;;;;3.60;2.80;;;24.90;61.80;;;;;;4947317;28;20462;-73
2022/09/05 10:06:54;;;;;;;4.03;2.60;;;25.00;61.90;;;;;;4964095;28;20487;-71
2022/09/05 10:09:44;;;;;;;3.40;2.50;;;25.00;61.70;;;;;;4969609;28;20493;-72
2022/09/05 10:12:41;;;;;;;3.30;3.00;;;25.00;61.50;;;;;;4950348;28;20543;-73
2022/09/05 10:15:51;;;;;;;4.90;2.93;;;25.10;61.40;;;;;;4957768;28;20458;-71
2022/09/05 10:18:25;;;;;;;3.10;2.90;;;25.10;61.30;;;;;;4940427;28;20553;-73
2022/09/05 10:20:51;;;;;;;3.67;2.90;;;25.20;61.20;;;;;;4975029;28;20415;-70
2022/09/05 10:23:58;;;;;;;3.27;2.97;;;25.20;61.20;;;;;;4954810;28;20446;-70
2022/09/05 10:26:44;;;;;;;3.40;3.10;;;25.30;61.10;;;;;;4954473;29;20435;-70
2022/09/05 10:29:37;;;;;;;3.23;3.03;;;25.30;61.00;;;;;;4971400;28;20516;-69
2022/09/05 10:32:22;;;;;;;3.30;3.00;;;25.30;60.80;;;;;;4956636;28;20447;-70
2022/09/05 10:35:23;;;;;;;3.30;3.00;;;25.40;60.70;;;;;;4965793;28;20452;-70
2022/09/05 10:38:01;;;;;;;3.20;2.90;;;25.40;60.60;;;;;;4924000;28;20778;-72
2022/09/05 10:40:29;;;;;;;3.00;2.80;;;25.40;59.90;;;;;;4967201;28;20833;-70
2022/09/05 10:43:16;;;;;;;4.37;2.80;;;25.50;59.80;;;;;;4934173;29;20535;-70
2022/09/05 10:45:43;;;;;;;2.77;2.57;;;25.50;59.80;;;;;;4951680;28;20451;-70
2022/09/05 10:48:39;;;;;;;3.20;3.00;;;25.60;59.80;;;;;;4954939;28;20423;-70
2022/09/05 10:51:28;;;;;;;4.43;3.07;;;25.60;59.80;;;;;;4972868;28;20460;-70
2022/09/05 10:54:36;;;;;;;3.90;3.30;;;25.60;59.70;;;;;;4957102;28;20457;-69
2022/09/05 10:57:29;;;;;;;3.30;3.00;;;25.70;59.60;;;;;;4902789;29;20850;-70
2022/09/05 11:00:08;;;;;;;3.27;3.03;;;25.70;59.60;;;;;;4936681;29;20507;-70
2022/09/05 11:02:45;;;;;;;3.10;2.67;;;25.80;59.50;;;;;;4968567;28;20433;-70
2022/09/05 11:05:49;;;;;;;3.30;3.00;;;25.80;59.40;;;;;;4972950;28;20471;-70
2022/09/05 11:08:37;;;;;;;3.30;3.00;;;25.90;59.30;;;;;;4913847;29;20483;-70
2022/09/05 11:11:15;;;;;;;3.17;2.97;;;25.90;59.20;;;;;;4951204;28;20475;-70
2022/09/05 11:13:49;;;;;;;3.20;2.90;;;25.90;59.10;;;;;;4954220;28;20469;-70
2022/09/05 11:16:34;;;;;;;3.70;3.40;;;26.00;59.10;;;;;;4952871;28;20496;-70
2022/09/05 11:19:08;;;;;;;3.33;3.03;;;26.00;58.90;;;;;;4953777;28;20418;-71
2022/09/05 11:21:58;;;;;;;3.43;2.90;;;26.00;58.70;;;;;;4954851;28;20410;-71
2022/09/05 11:24:51;;;;;;;2.70;2.50;;;26.10;58.70;;;;;;4946266;28;20469;-71
2022/09/05 11:27:47;;;;;;;3.50;3.20;;;26.10;58.50;;;;;;4941774;28;20429;-71
2022/09/05 11:30:19;;;;;;;3.43;2.80;;;26.20;58.20;;;;;;4954545;28;20476;-71
2022/09/05 11:33:19;;;;;;;3.33;2.93;;;26.20;57.80;;;;;;4972508;28;20501;-70
2022/09/05 11:35:56;;;;;;;3.53;3.23;;;26.30;57.80;;;;;;4964648;28;20900;-70
2022/09/05 11:39:07;;;;;;;3.30;3.00;;;26.30;57.80;;;;;;4995065;23;20497;-68
2022/09/05 11:42:00;;;;;;;3.10;2.90;;;26.30;57.70;;;;;;4964656;28;20445;-68
2022/09/05 11:44:34;;;;;;;3.40;3.10;;;26.40;57.60;;;;;;4979588;28;20475;-68
2022/09/05 11:47:09;;;;;;;3.47;3.27;;;26.40;57.70;;;;;;4937017;28;20840;-68
2022/09/05 11:49:42;;;;;;;5.83;3.07;;;26.50;57.70;;;;;;4972253;28;20417;-67
2022/09/05 11:52:26;;;;;;;3.60;2.90;;;26.50;57.60;;;;;;4960308;28;20431;-68
2022/09/05 11:55:51;;;;;;;2.80;2.60;;;26.50;57.50;;;;;;4942900;28;20471;-68
2022/09/05 11:58:56;;;;;;;3.57;3.27;;;26.60;57.60;;;;;;4982309;28;20973;-67
2022/09/05 12:01:30;;;;;;;2.83;2.63;;;26.60;57.50;;;;;;4956269;28;20445;-68
2022/09/05 12:04:10;;;;;;;2.90;2.70;;;26.70;57.50;;;;;;4978794;28;20456;-68
2022/09/05 12:06:56;;;;;;;2.73;2.53;;;26.70;57.50;;;;;;4972215;28;20862;-67
2022/09/05 12:09:33;;;;;;;2.97;2.70;;;26.70;57.40;;;;;;4960060;28;21014;-68
2022/09/05 12:12:25;;;;;;;3.03;2.70;;;26.70;57.20;;;;;;4969107;28;20536;-68
2022/09/05 12:15:26;;;;;;;3.50;2.87;;;26.80;57.20;;;;;;4971065;28;20457;-68
2022/09/05 12:18:28;;;;;;;3.40;3.10;;;26.80;57.10;;;;;;4955125;28;20790;-68
2022/09/05 12:21:18;;;;;;;3.23;2.80;;;26.90;57.10;;;;;;4951436;28;20856;-69
2022/09/05 12:24:00;;;;;;;2.60;2.37;;;26.90;57.00;;;;;;4956877;28;20442;-68
2022/09/05 12:26:32;;;;;;;3.33;3.03;;;27.00;56.90;;;;;;4939101;28;20791;-69
2022/09/05 12:29:19;;;;;;;3.10;2.80;;;27.00;56.90;;;;;;4954637;28;20469;-70
2022/09/05 12:31:53;;;;;;;3.40;2.90;;;27.00;56.90;;;;;;4961630;28;20469;-68
2022/09/05 12:34:39;;;;;;;3.00;2.70;;;27.00;56.60;;;;;;4970031;28;20489;-68
2022/09/05 12:37:15;;;;;;;3.37;2.70;;;27.10;56.70;;;;;;4968454;28;20430;-69
2022/09/05 12:39:48;;;;;;;2.63;2.43;;;27.10;56.70;;;;;;4956601;28;20480;-69
2022/09/05 12:42:42;;;;;;;2.70;2.50;;;27.20;56.80;;;;;;4954140;28;20426;-69
2022/09/05 12:45:14;;;;;;;2.67;2.47;;;27.20;56.70;;;;;;4954648;28;20833;-70
2022/09/05 12:47:59;;;;;;;2.60;2.40;;;27.20;56.60;;;;;;4952108;28;20411;-69
2022/09/05 12:50:33;;;;;;;2.83;2.63;;;27.30;56.60;;;;;;4957261;28;20458;-69
2022/09/05 12:53:23;;;;;;;3.27;3.00;;;27.30;56.40;;;;;;4950520;28;20415;-68
2022/09/05 12:55:54;;;;;;;3.17;2.60;;;27.30;56.30;;;;;;4970678;28;20402;-69
2022/09/05 12:58:32;;;;;;;2.67;2.47;;;27.30;56.30;;;;;;4967374;28;20443;-68
2022/09/05 13:01:16;;;;;;;2.63;2.43;;;27.40;56.30;;;;;;4953629;28;20469;-68
2022/09/05 13:03:49;;;;;;;3.10;2.90;;;27.40;56.20;;;;;;4958570;28;20438;-70
2022/09/05 13:06:29;;;;;;;2.70;2.50;;;27.50;56.20;;;;;;4954734;29;20750;-69
2022/09/05 13:09:12;;;;;;;2.87;2.67;;;27.50;56.20;;;;;;4970011;28;20826;-68
2022/09/05 13:12:09;;;;;;;3.10;2.73;;;27.50;56.10;;;;;;4954312;29;20543;-69
2022/09/05 13:14:57;;;;;;;2.93;2.60;;;27.60;56.00;;;;;;4947889;28;20486;-69
2022/09/05 13:17:42;;;;;;;5.60;2.77;;;27.60;55.70;;;;;;4938592;28;20877;-69
2022/09/05 13:20:36;;;;;;;3.30;3.00;;;27.60;55.50;;;;;;4963054;28;20437;-69
2022/09/05 13:23:26;;;;;;;2.70;2.50;;;27.60;55.50;;;;;;4973778;28;20640;-69
2022/09/05 13:26:18;;;;;;;3.63;2.57;;;27.70;55.50;;;;;;4954748;28;20972;-69
2022/09/05 13:28:57;;;;;;;2.70;2.50;;;27.70;55.30;;;;;;4957517;28;20442;-70
2022/09/05 13:31:41;;;;;;;3.13;2.93;;;27.80;55.30;;;;;;4963569;28;20476;-68
2022/09/05 13:34:39;;;;;;;3.00;2.60;;;27.80;55.30;;;;;;4973067;28;20473;-70
2022/09/05 13:37:20;;;;;;;2.93;2.60;;;27.80;55.30;;;;;;4976799;28;20458;-69
2022/09/05 13:40:19;;;;;;;2.70;2.50;;;27.90;55.20;;;;;;4969299;28;20484;-69
2022/09/05 13:43:10;;;;;;;2.80;2.60;;;27.90;55.00;;;;;;4974603;28;20534;-69
2022/09/05 13:45:47;;;;;;;2.70;2.50;;;27.90;55.00;;;;;;4965165;28;20457;-69
2022/09/05 13:48:41;;;;;;;2.60;2.40;;;28.00;55.10;;;;;;4957226;28;20433;-69
2022/09/05 13:51:26;;;;;;;3.60;2.80;;;28.00;55.10;;;;;;4942870;28;21004;-69
2022/09/05 13:54:13;;;;;;;2.70;2.50;;;28.00;55.10;;;;;;4954718;28;20450;-70
2022/09/05 13:57:06;;;;;;;4.50;2.50;;;28.10;55.10;;;;;;4935183;29;20453;-69
2022/09/05 13:59:43;;;;;;;3.00;2.70;;;28.10;54.90;;;;;;4957997;28;20973;-69
2022/09/05 14:02:29;;;;;;;3.00;2.80;;;28.10;54.80;;;;;;4974098;28;20450;-69
2022/09/05 14:05:12;;;;;;;3.13;2.93;;;28.10;54.40;;;;;;4972285;28;20450;-69
2022/09/05 14:07:43;;;;;;;3.20;3.00;;;28.20;54.40;;;;;;4960718;28;20435;-69
2022/09/05 14:10:42;;;;;;;3.83;2.50;;;28.20;54.50;;;;;;4946456;28;20619;-69
2022/09/05 14:13:24;;;;;;;2.57;2.37;;;28.20;54.50;;;;;;4926072;28;20602;-69
2022/09/05 14:15:56;;;;;;;2.97;2.77;;;28.20;54.50;;;;;;4955403;28;20430;-69
2022/09/05 14:18:30;;;;;;;4.20;2.70;;;28.30;54.60;;;;;;4964224;28;20617;-69
2022/09/05 14:21:15;;;;;;;2.73;2.53;;;28.30;54.50;;;;;;4957920;28;20433;-70